createdAt,value
2024-03-07T00:00:37.890Z,26.37
2024-03-07T00:03:06.162Z,32.83
2024-03-07T00:05:34.055Z,28.33
2024-03-07T00:08:03.592Z,30.53
2024-03-07T00:10:33.016Z,27.90
2024-03-07T00:13:01.619Z,30.73
2024-03-07T00:15:31.214Z,30.13
2024-03-07T00:17:59.084Z,28.57
2024-03-07T00:20:26.935Z,31.37
2024-03-07T00:22:54.721Z,30.10
2024-03-07T00:25:23.420Z,31.23
2024-03-07T00:27:54.586Z,31.93
2024-03-07T00:30:22.227Z,28.27
2024-03-07T00:32:50.313Z,29.73
2024-03-07T00:35:18.483Z,28.90
2024-03-07T00:37:46.450Z,28.30
2024-03-07T00:40:13.385Z,34.63
2024-03-07T00:42:41.113Z,27.60
2024-03-07T00:45:10.529Z,30.63
2024-03-07T00:47:39.415Z,27.87
2024-03-07T00:50:10.539Z,27.23
2024-03-07T00:52:38.727Z,29.03
2024-03-07T00:55:09.810Z,28.93
2024-03-07T00:57:37.918Z,28.93
2024-03-07T01:00:06.680Z,31.13
2024-03-07T01:02:36.190Z,29.20
2024-03-07T01:05:09.598Z,28.13
2024-03-07T01:07:38.265Z,31.10
2024-03-07T01:10:07.226Z,30.90
2024-03-07T01:12:36.153Z,29.33
2024-03-07T01:15:05.326Z,33.97
2024-03-07T01:17:34.124Z,29.97
2024-03-07T01:20:05.645Z,31.43
2024-03-07T01:22:33.475Z,30.27
2024-03-07T01:25:01.278Z,30.27
2024-03-07T01:27:29.091Z,29.37
2024-03-07T01:29:56.906Z,34.60
2024-03-07T01:32:27.756Z,30.00
2024-03-07T01:34:55.908Z,30.23
2024-03-07T01:37:25.120Z,30.53
2024-03-07T01:39:52.909Z,32.63
2024-03-07T01:42:20.864Z,35.93
2024-03-07T01:44:48.717Z,35.40
2024-03-07T01:47:17.259Z,34.93
2024-03-07T01:49:45.336Z,31.40
2024-03-07T01:52:18.208Z,31.90
2024-03-07T01:54:48.659Z,32.43
2024-03-07T01:57:17.884Z,31.60
2024-03-07T01:59:46.142Z,32.20
2024-03-07T02:02:14.187Z,32.93
2024-03-07T02:04:41.991Z,31.53
2024-03-07T02:07:12.389Z,32.13
2024-03-07T02:09:40.166Z,31.43
2024-03-07T02:12:10.789Z,34.03
2024-03-07T02:14:38.650Z,34.83
2024-03-07T02:17:06.525Z,38.40
2024-03-07T02:19:34.404Z,34.83
2024-03-07T02:22:03.497Z,38.87
2024-03-07T02:24:32.543Z,36.93
2024-03-07T02:27:00.632Z,33.93
2024-03-07T02:29:28.576Z,39.33
2024-03-07T02:31:56.717Z,36.63
2024-03-07T02:34:24.872Z,35.23
2024-03-07T02:36:55.650Z,37.40
2024-03-07T02:39:26.080Z,38.73
2024-03-07T02:41:55.991Z,36.43
2024-03-07T02:44:26.315Z,35.10
2024-03-07T02:46:55.602Z,36.07
2024-03-07T02:49:23.382Z,36.73
2024-03-07T02:51:51.171Z,39.63
2024-03-07T02:54:19.173Z,35.27
2024-03-07T02:56:48.462Z,37.10
2024-03-07T02:59:16.635Z,36.63
2024-03-07T03:01:44.641Z,38.40
2024-03-07T03:04:12.460Z,37.37
2024-03-07T03:06:40.205Z,35.80
2024-03-07T03:09:14.221Z,33.50
2024-03-07T03:11:42.049Z,34.37
2024-03-07T03:14:11.943Z,43.67
2024-03-07T03:16:48.191Z,41.00
2024-03-07T03:19:17.185Z,38.17
2024-03-07T03:21:45.019Z,38.93
2024-03-07T03:24:13.063Z,38.43
2024-03-07T03:26:43.334Z,36.50
2024-03-07T03:29:13.109Z,37.10
2024-03-07T03:31:40.955Z,37.23
2024-03-07T03:34:09.852Z,36.37
2024-03-07T03:36:37.726Z,36.87
2024-03-07T03:39:05.503Z,36.97
2024-03-07T03:41:33.309Z,36.33
2024-03-07T03:44:01.060Z,37.23
2024-03-07T03:46:30.184Z,38.07
2024-03-07T03:48:57.871Z,37.60
2024-03-07T03:51:26.287Z,36.87
2024-03-07T03:53:54.712Z,34.40
2024-03-07T03:56:22.790Z,35.40
2024-03-07T03:58:50.732Z,37.97
2024-03-07T04:01:18.446Z,35.27
2024-03-07T04:03:48.424Z,34.10
2024-03-07T04:06:16.410Z,34.73
2024-03-07T04:08:44.270Z,38.23
2024-03-07T04:11:12.120Z,36.07
2024-03-07T04:13:39.966Z,34.43
2024-03-07T04:16:08.054Z,32.67
2024-03-07T04:18:35.830Z,33.90
2024-03-07T04:21:05.120Z,31.63
2024-03-07T04:23:32.965Z,35.77
2024-03-07T04:26:00.956Z,33.63
2024-03-07T04:28:29.006Z,32.20
2024-03-07T04:30:56.654Z,33.23
2024-03-07T04:33:24.988Z,31.17
2024-03-07T04:35:55.099Z,31.47
2024-03-07T04:38:24.174Z,35.30
2024-03-07T04:40:51.826Z,29.43
2024-03-07T04:43:19.465Z,31.33
2024-03-07T04:45:47.528Z,30.00
2024-03-07T04:48:15.340Z,32.23
2024-03-07T04:50:43.405Z,29.53
2024-03-07T04:53:11.157Z,32.20
2024-03-07T04:55:40.218Z,29.40
2024-03-07T04:58:07.896Z,31.90
2024-03-07T05:00:35.642Z,30.67
2024-03-07T05:03:03.652Z,33.33
2024-03-07T05:05:31.419Z,29.57
2024-03-07T05:07:59.122Z,29.67
2024-03-07T05:10:28.282Z,35.03
2024-03-07T05:12:59.818Z,29.33
2024-03-07T05:15:27.699Z,27.70
2024-03-07T05:17:57.287Z,30.63
2024-03-07T05:20:25.462Z,31.13
2024-03-07T05:22:53.322Z,29.87
2024-03-07T05:25:21.213Z,30.73
2024-03-07T05:27:51.378Z,27.40
2024-03-07T05:30:20.617Z,27.17
2024-03-07T05:32:49.366Z,28.73
2024-03-07T05:35:19.835Z,29.07
2024-03-07T05:37:49.304Z,31.27
2024-03-07T05:40:17.040Z,28.53
2024-03-07T05:42:44.678Z,24.40
2024-03-07T05:45:12.387Z,28.67
2024-03-07T05:47:41.431Z,28.37
2024-03-07T05:50:10.116Z,25.87
2024-03-07T05:52:37.754Z,26.13
2024-03-07T05:55:07.687Z,27.43
2024-03-07T05:57:35.632Z,30.60
2024-03-07T06:00:10.525Z,27.93
2024-03-07T06:02:38.471Z,26.80
2024-03-07T06:05:13.719Z,29.23
2024-03-07T06:07:41.664Z,33.40
2024-03-07T06:10:12.238Z,27.63
2024-03-07T06:12:46.286Z,26.63
2024-03-07T06:15:16.723Z,27.00
2024-03-07T06:17:47.491Z,28.00
2024-03-07T06:20:24.244Z,31.27
2024-03-07T06:22:53.247Z,29.07
2024-03-07T06:25:24.135Z,26.47
2024-03-07T06:27:53.185Z,25.93
2024-03-07T06:30:20.869Z,27.47
2024-03-07T06:32:48.667Z,33.40
2024-03-07T06:35:18.937Z,25.47
2024-03-07T06:37:46.605Z,28.17
2024-03-07T06:40:15.927Z,28.83
2024-03-07T06:42:43.682Z,25.77
2024-03-07T06:45:13.440Z,28.10
2024-03-07T06:47:42.290Z,27.20
2024-03-07T06:50:23.524Z,29.33
2024-03-07T06:53:01.108Z,29.33
2024-03-07T06:55:30.268Z,29.13
2024-03-07T06:57:57.933Z,27.10
2024-03-07T07:00:27.433Z,36.73
2024-03-07T07:02:56.242Z,25.77
2024-03-07T07:05:24.667Z,25.90
2024-03-07T07:07:53.020Z,29.23
2024-03-07T07:10:25.715Z,31.07
2024-03-07T07:12:55.892Z,27.33
2024-03-07T07:15:24.037Z,27.70
2024-03-07T07:17:52.150Z,28.57
2024-03-07T07:20:20.548Z,25.97
2024-03-07T07:22:49.799Z,27.93
2024-03-07T07:25:17.778Z,26.83
2024-03-07T07:27:48.086Z,25.30
2024-03-07T07:30:17.631Z,24.33
2024-03-07T07:32:46.169Z,24.67
2024-03-07T07:35:14.508Z,26.00
2024-03-07T07:37:42.299Z,29.47
2024-03-07T07:40:14.123Z,28.50
2024-03-07T07:42:42.991Z,25.60
2024-03-07T07:45:13.146Z,24.20
2024-03-07T07:47:41.512Z,24.40
2024-03-07T07:50:13.946Z,23.83
2024-03-07T07:52:45.968Z,25.90
2024-03-07T07:55:16.242Z,24.33
2024-03-07T07:57:45.409Z,24.80
2024-03-07T08:00:22.560Z,25.77
2024-03-07T08:02:54.601Z,24.07
2024-03-07T08:05:24.427Z,25.17
2024-03-07T08:07:53.026Z,22.60
2024-03-07T08:10:21.582Z,25.60
2024-03-07T08:12:49.408Z,28.43
2024-03-07T08:15:18.687Z,23.90
2024-03-07T08:17:47.817Z,24.63
2024-03-07T08:20:17.154Z,25.80
2024-03-07T08:22:45.196Z,22.03
2024-03-07T08:25:13.479Z,26.57
2024-03-07T08:27:42.597Z,24.00
2024-03-07T08:30:14.036Z,23.27
2024-03-07T08:32:43.443Z,27.47
2024-03-07T08:35:12.605Z,24.07
2024-03-07T08:37:40.964Z,24.07
2024-03-07T08:40:11.054Z,21.60
2024-03-07T08:42:39.494Z,22.57
2024-03-07T08:45:07.931Z,21.27
2024-03-07T08:47:36.847Z,25.40
2024-03-07T08:50:09.602Z,19.53
2024-03-07T08:52:39.151Z,26.07
2024-03-07T08:55:07.508Z,22.10
2024-03-07T08:57:35.336Z,19.23
2024-03-07T09:00:09.301Z,17.77
2024-03-07T09:02:37.750Z,20.30
2024-03-07T09:05:08.441Z,18.83
2024-03-07T09:07:36.381Z,16.43
2024-03-07T09:10:05.224Z,17.17
2024-03-07T09:12:33.073Z,19.77
2024-03-07T09:15:00.918Z,17.13
2024-03-07T09:17:29.100Z,17.63
2024-03-07T09:19:56.830Z,18.03
2024-03-07T09:22:26.232Z,17.57
2024-03-07T09:24:54.003Z,16.93
2024-03-07T09:27:23.068Z,18.17
2024-03-07T09:29:51.051Z,16.13
2024-03-07T09:32:19.160Z,16.30
2024-03-07T09:34:47.508Z,16.80
2024-03-07T09:37:15.373Z,15.80
2024-03-07T09:39:44.725Z,14.93
2024-03-07T09:42:14.375Z,16.33
2024-03-07T09:44:44.025Z,17.60
2024-03-07T09:47:12.331Z,18.23
2024-03-07T09:49:40.201Z,17.40
2024-03-07T09:52:13.047Z,19.37
2024-03-07T09:54:41.406Z,16.93
2024-03-07T09:57:11.930Z,16.33
2024-03-07T09:59:41.448Z,15.03
2024-03-07T10:02:09.416Z,14.37
2024-03-07T10:04:42.055Z,17.53
2024-03-07T10:07:12.498Z,14.90
2024-03-07T10:09:41.587Z,15.80
2024-03-07T10:12:13.879Z,18.43
2024-03-07T10:14:50.541Z,17.20
2024-03-07T10:17:19.113Z,15.80
2024-03-07T10:19:49.116Z,19.50
2024-03-07T10:22:16.957Z,17.70
2024-03-07T10:24:51.813Z,18.90
2024-03-07T10:27:21.916Z,18.00
2024-03-07T10:29:50.571Z,19.77
2024-03-07T10:32:21.669Z,18.57
2024-03-07T10:34:49.582Z,20.43
2024-03-07T10:37:18.612Z,19.30
2024-03-07T10:39:46.815Z,19.40
2024-03-07T10:42:16.287Z,19.13
2024-03-07T10:44:47.219Z,18.90
2024-03-07T10:47:19.038Z,18.60
2024-03-07T10:49:56.302Z,16.70
2024-03-07T10:52:31.499Z,17.10
2024-03-07T10:55:13.793Z,17.90
2024-03-07T10:57:51.981Z,19.23
2024-03-07T11:00:37.206Z,18.10
2024-03-07T11:03:09.369Z,18.27
2024-03-07T11:05:37.226Z,18.67
2024-03-07T11:08:12.693Z,18.70
2024-03-07T11:10:41.450Z,17.90
2024-03-07T11:13:13.014Z,16.27
2024-03-07T11:15:45.228Z,18.73
2024-03-07T11:18:13.906Z,16.47
2024-03-07T11:20:44.373Z,18.67
2024-03-07T11:23:30.302Z,18.03
2024-03-07T11:26:08.393Z,17.77
2024-03-07T11:28:38.399Z,23.10
2024-03-07T11:31:11.600Z,17.67
2024-03-07T11:33:42.311Z,19.90
2024-03-07T11:36:13.145Z,17.80
2024-03-07T11:38:41.080Z,19.23
2024-03-07T11:41:09.621Z,19.33
2024-03-07T11:43:37.341Z,19.87
2024-03-07T11:46:12.560Z,19.60
2024-03-07T11:48:45.973Z,18.87
2024-03-07T11:51:22.605Z,25.93
2024-03-07T11:53:52.731Z,18.20
2024-03-07T11:56:20.548Z,20.27
2024-03-07T11:58:55.058Z,16.03
2024-03-07T12:01:26.647Z,18.67
2024-03-07T12:03:58.868Z,19.87
2024-03-07T12:06:32.853Z,18.40
2024-03-07T12:09:02.694Z,18.17
2024-03-07T12:11:32.198Z,19.83
2024-03-07T12:14:00.379Z,15.80
2024-03-07T12:16:30.684Z,16.70
2024-03-07T12:19:00.041Z,20.47
2024-03-07T12:21:28.814Z,16.90
2024-03-07T12:23:56.516Z,18.43
2024-03-07T12:26:26.675Z,16.90
2024-03-07T12:28:55.905Z,15.40
2024-03-07T12:31:25.872Z,15.87
2024-03-07T12:33:54.335Z,16.77
2024-03-07T12:36:27.988Z,16.00
2024-03-07T12:38:57.413Z,18.03
2024-03-07T12:41:25.352Z,16.83
2024-03-07T12:43:53.406Z,17.17
2024-03-07T12:46:21.088Z,18.03
2024-03-07T12:48:50.709Z,16.40
2024-03-07T12:51:20.576Z,18.13
2024-03-07T12:53:50.664Z,16.93
2024-03-07T12:56:20.888Z,16.23
2024-03-07T12:58:50.939Z,17.90
2024-03-07T13:01:20.177Z,15.63
2024-03-07T13:03:49.770Z,19.43
2024-03-07T13:06:20.562Z,15.27
2024-03-07T13:08:50.042Z,17.67
2024-03-07T13:11:18.149Z,15.13
2024-03-07T13:13:45.970Z,13.87
2024-03-07T13:16:13.665Z,15.63
2024-03-07T13:18:41.462Z,14.60
2024-03-07T13:21:12.421Z,13.77
2024-03-07T13:23:41.390Z,13.87
2024-03-07T13:26:17.770Z,11.80
2024-03-07T13:28:46.484Z,15.43
2024-03-07T13:31:14.123Z,12.63
2024-03-07T13:33:42.386Z,14.33
2024-03-07T13:36:10.293Z,15.97
2024-03-07T13:38:39.394Z,14.57
2024-03-07T13:41:07.268Z,15.47
2024-03-07T13:43:36.276Z,15.23
2024-03-07T13:46:05.036Z,14.10
2024-03-07T13:48:34.285Z,14.13
2024-03-07T13:51:08.902Z,13.63
2024-03-07T13:53:48.330Z,16.80
2024-03-07T13:56:36.538Z,13.67
2024-03-07T13:59:54.292Z,15.83
2024-03-07T14:02:44.211Z,16.13
2024-03-07T14:05:37.503Z,13.00
2024-03-07T14:08:25.618Z,12.17
2024-03-07T14:11:27.967Z,16.47
2024-03-07T14:14:12.444Z,12.23
2024-03-07T14:17:07.761Z,12.83
2024-03-07T14:19:58.831Z,12.87
2024-03-07T14:22:42.111Z,12.53
2024-03-07T14:25:24.768Z,14.83
2024-03-07T14:28:00.435Z,12.23
2024-03-07T14:30:41.765Z,11.10
2024-03-07T14:33:10.325Z,10.67
2024-03-07T14:36:05.150Z,11.87
2024-03-07T14:38:46.868Z,13.63
2024-03-07T14:41:16.282Z,11.90
2024-03-07T14:43:44.851Z,11.50
2024-03-07T14:46:13.953Z,11.77
2024-03-07T14:48:42.253Z,12.00
2024-03-07T14:51:14.791Z,11.63
2024-03-07T14:53:43.765Z,12.27
2024-03-07T14:56:12.423Z,12.37
2024-03-07T14:58:40.860Z,11.73
2024-03-07T15:01:09.107Z,12.43
2024-03-07T15:03:39.233Z,13.27
2024-03-07T15:06:09.789Z,11.97
2024-03-07T15:08:42.071Z,11.90
2024-03-07T15:11:14.917Z,12.10
2024-03-07T15:13:43.979Z,11.50
2024-03-07T15:16:25.215Z,11.33
2024-03-07T15:18:57.854Z,11.47
2024-03-07T15:21:25.563Z,12.23
2024-03-07T15:23:54.701Z,12.60
2024-03-07T15:26:25.205Z,12.03
2024-03-07T15:28:53.327Z,11.70
2024-03-07T15:31:21.586Z,11.87
2024-03-07T15:33:52.590Z,12.23
2024-03-07T15:36:22.649Z,11.70
2024-03-07T15:38:50.958Z,10.47
2024-03-07T15:41:20.868Z,10.63
2024-03-07T15:43:48.995Z,9.57
2024-03-07T15:46:19.388Z,14.20
2024-03-07T15:48:50.026Z,10.53
2024-03-07T15:51:18.478Z,10.00
2024-03-07T15:53:47.297Z,13.63
2024-03-07T15:56:16.836Z,11.10
2024-03-07T15:58:46.573Z,11.27
2024-03-07T16:01:17.371Z,10.50
2024-03-07T16:03:47.717Z,11.17
2024-03-07T16:06:17.503Z,10.27
2024-03-07T16:08:45.532Z,11.83
2024-03-07T16:11:14.341Z,10.90
2024-03-07T16:13:42.255Z,10.53
2024-03-07T16:16:11.822Z,9.70
2024-03-07T16:18:39.781Z,10.90
2024-03-07T16:21:08.731Z,12.27
2024-03-07T16:23:36.430Z,12.73
2024-03-07T16:26:06.545Z,11.80
2024-03-07T16:28:34.298Z,12.30
2024-03-07T16:31:02.809Z,14.40
2024-03-07T16:33:35.047Z,13.37
2024-03-07T16:36:02.901Z,11.97
2024-03-07T16:38:30.611Z,13.60
2024-03-07T16:40:58.622Z,12.87
2024-03-07T16:43:26.734Z,16.50
2024-03-07T16:45:55.758Z,15.10
2024-03-07T16:48:23.604Z,15.43
2024-03-07T16:50:55.458Z,12.90
2024-03-07T16:53:24.463Z,14.30
2024-03-07T16:55:52.187Z,10.70
2024-03-07T16:58:19.803Z,12.70
2024-03-07T17:00:47.454Z,13.77
2024-03-07T17:03:16.303Z,13.17
2024-03-07T17:05:45.840Z,14.03
2024-03-07T17:08:17.831Z,13.13
2024-03-07T17:10:47.159Z,12.47
2024-03-07T17:13:16.792Z,15.20
2024-03-07T17:15:45.764Z,12.90
2024-03-07T17:18:17.243Z,16.27
2024-03-07T17:20:46.781Z,24.50
2024-03-07T17:23:18.065Z,11.53
2024-03-07T17:25:45.936Z,18.27
2024-03-07T17:28:13.581Z,22.77
2024-03-07T17:30:42.233Z,35.70
2024-03-07T17:33:10.309Z,30.17
2024-03-07T17:35:42.023Z,14.93
2024-03-07T17:38:11.939Z,10.73
2024-03-07T17:40:42.004Z,11.87
2024-03-07T17:43:10.752Z,15.17
2024-03-07T17:45:39.118Z,14.73
2024-03-07T17:48:11.637Z,13.73
2024-03-07T17:50:39.692Z,12.00
2024-03-07T17:53:11.947Z,11.33
2024-03-07T17:55:44.955Z,13.87
2024-03-07T17:58:14.535Z,13.93
2024-03-07T18:00:44.078Z,15.03
2024-03-07T18:03:12.824Z,13.57
2024-03-07T18:05:44.295Z,12.50
2024-03-07T18:08:34.017Z,12.43
2024-03-07T18:11:11.450Z,14.67
2024-03-07T18:13:40.557Z,12.00
2024-03-07T18:16:09.773Z,12.67
2024-03-07T18:18:39.279Z,13.33
2024-03-07T18:21:09.783Z,14.13
2024-03-07T18:23:37.909Z,11.70
2024-03-07T18:26:07.178Z,20.10
2024-03-07T18:28:37.353Z,12.37
2024-03-07T18:31:09.921Z,12.47
2024-03-07T18:33:37.926Z,12.73
2024-03-07T18:36:07.165Z,15.00
2024-03-07T18:38:35.409Z,14.07
2024-03-07T18:41:06.947Z,11.50
2024-03-07T18:43:36.076Z,12.90
2024-03-07T18:46:04.366Z,14.53
2024-03-07T18:48:32.771Z,14.63
2024-03-07T18:51:00.682Z,12.57
2024-03-07T18:53:28.424Z,14.67
2024-03-07T18:55:57.814Z,15.40
2024-03-07T18:58:27.022Z,13.90
2024-03-07T19:00:58.487Z,14.93
2024-03-07T19:03:29.412Z,11.67
2024-03-07T19:05:57.675Z,16.43
2024-03-07T19:08:29.687Z,14.73
2024-03-07T19:10:59.384Z,13.77
2024-03-07T19:13:33.823Z,16.77
2024-03-07T19:16:03.985Z,13.97
2024-03-07T19:18:31.908Z,14.53
2024-03-07T19:20:59.757Z,13.57
2024-03-07T19:23:27.822Z,16.00
2024-03-07T19:25:56.033Z,14.03
2024-03-07T19:28:25.568Z,16.30
2024-03-07T19:30:53.540Z,17.43
2024-03-07T19:33:25.372Z,14.63
2024-03-07T19:35:56.874Z,15.70
2024-03-07T19:38:26.066Z,13.70
2024-03-07T19:40:54.375Z,13.73
2024-03-07T19:43:24.763Z,13.60
2024-03-07T19:45:53.627Z,15.60
2024-03-07T19:48:25.870Z,15.10
2024-03-07T19:50:55.436Z,13.63
2024-03-07T19:53:23.474Z,12.03
2024-03-07T19:55:51.251Z,13.57
2024-03-07T19:58:20.833Z,14.60
2024-03-07T20:00:50.555Z,14.67
2024-03-07T20:03:22.554Z,13.33
2024-03-07T20:05:52.984Z,13.43
2024-03-07T20:08:22.385Z,14.13
2024-03-07T20:10:51.826Z,13.77
2024-03-07T20:13:20.879Z,11.63
2024-03-07T20:15:49.140Z,14.80
2024-03-07T20:18:17.188Z,15.10
2024-03-07T20:20:47.168Z,14.00
2024-03-07T20:23:17.881Z,14.37
2024-03-07T20:25:47.504Z,14.40
2024-03-07T20:28:15.963Z,12.43
2024-03-07T20:30:54.052Z,13.10
2024-03-07T20:33:22.828Z,13.10
2024-03-07T20:35:52.387Z,11.00
2024-03-07T20:38:24.474Z,15.07
2024-03-07T20:40:53.214Z,13.53
2024-03-07T20:43:21.136Z,13.93
2024-03-07T20:45:49.116Z,12.80
2024-03-07T20:48:16.932Z,13.17
2024-03-07T20:50:44.799Z,11.10
2024-03-07T20:53:14.196Z,13.77
2024-03-07T20:55:43.559Z,14.63
2024-03-07T20:58:13.873Z,14.47
2024-03-07T21:00:47.046Z,13.97
2024-03-07T21:03:16.221Z,13.60
2024-03-07T21:05:45.454Z,13.93
2024-03-07T21:08:13.629Z,12.80
2024-03-07T21:10:42.354Z,14.73
2024-03-07T21:13:12.047Z,13.03
2024-03-07T21:15:39.910Z,14.63
2024-03-07T21:18:10.056Z,13.80
2024-03-07T21:20:38.488Z,12.83
2024-03-07T21:23:08.239Z,11.33
2024-03-07T21:25:36.776Z,13.17
2024-03-07T21:28:05.614Z,11.40
2024-03-07T21:30:34.775Z,11.17
2024-03-07T21:33:02.701Z,16.10
2024-03-07T21:35:32.072Z,13.10
2024-03-07T21:38:00.483Z,15.07
2024-03-07T21:40:28.410Z,15.43
2024-03-07T21:42:56.193Z,11.97
2024-03-07T21:45:23.976Z,15.33
2024-03-07T21:47:53.344Z,14.53
2024-03-07T21:50:21.247Z,13.40
2024-03-07T21:52:50.273Z,13.00
2024-03-07T21:55:21.055Z,13.17
2024-03-07T21:57:49.614Z,13.07
2024-03-07T22:00:19.584Z,15.87
2024-03-07T22:02:57.995Z,13.20
2024-03-07T22:05:31.560Z,12.87
2024-03-07T22:08:00.490Z,14.77
2024-03-07T22:10:30.635Z,14.07
2024-03-07T22:12:59.053Z,13.27
2024-03-07T22:15:27.482Z,12.93
2024-03-07T22:17:55.768Z,16.47
2024-03-07T22:20:25.544Z,13.57
2024-03-07T22:22:55.130Z,14.93
2024-03-07T22:25:23.881Z,16.03
2024-03-07T22:27:53.057Z,13.30
2024-03-07T22:30:24.261Z,14.00
2024-03-07T22:32:53.772Z,18.23
2024-03-07T22:35:22.678Z,13.40
2024-03-07T22:37:52.072Z,14.90
2024-03-07T22:40:24.931Z,15.07
2024-03-07T22:42:53.901Z,13.03
2024-03-07T22:45:22.001Z,16.17
2024-03-07T22:47:52.194Z,18.70
2024-03-07T22:50:27.803Z,18.73
2024-03-07T22:52:58.684Z,15.80
2024-03-07T22:55:27.836Z,17.37
2024-03-07T22:57:55.802Z,14.40
2024-03-07T23:00:28.219Z,15.50
2024-03-07T23:02:59.629Z,14.10
2024-03-07T23:05:28.776Z,14.73
2024-03-07T23:07:57.788Z,16.03
2024-03-07T23:10:26.984Z,16.23
2024-03-07T23:12:57.863Z,15.97
2024-03-07T23:15:27.984Z,16.03
2024-03-07T23:17:57.038Z,18.17
2024-03-07T23:20:26.957Z,22.27
2024-03-07T23:22:57.529Z,14.00
2024-03-07T23:25:27.878Z,16.17
2024-03-07T23:27:56.779Z,16.93
2024-03-07T23:30:27.555Z,19.43
2024-03-07T23:32:56.225Z,14.30
2024-03-07T23:35:24.813Z,17.57
2024-03-07T23:37:52.834Z,16.13
2024-03-07T23:40:21.297Z,18.53
2024-03-07T23:42:52.728Z,18.03
2024-03-07T23:45:22.240Z,17.83
2024-03-07T23:47:50.499Z,16.27
2024-03-07T23:50:18.665Z,15.87
2024-03-07T23:52:47.344Z,17.33
2024-03-07T23:55:19.523Z,17.43
2024-03-07T23:57:47.672Z,17.90
